Time;durP1;ratioP1;P1;durP2;ratioP2;P2;SDS_P1;SDS_P2;PMS_P1;PMS_P2;Temp;Humidity;BMP_temperature;BMP_pressure;BME280_temperature;BME280_humidity;BME280_pressure;Samples;Min_cycle;Max_cycle;Signal;HPM_P1;HPM_P2
2022/11/30 05:18:33;;;;;;;26.02;13.25;;;;;;;2.01;100.00;101009.53;5595240;31;281159;-92
2022/11/30 05:21:36;;;;;;;23.42;13.18;;;;;;;2.01;100.00;101013.91;5593533;32;35052;-91
2022/11/30 05:24:46;;;;;;;24.33;12.88;;;;;;;2.02;100.00;101015.66;5589125;32;34663;-89
2022/11/30 05:27:49;;;;;;;23.95;12.88;;;;;;;2.07;100.00;101018.25;5583372;31;33944;-88
2022/11/30 05:30:52;;;;;;;21.45;11.98;;;;;;;2.09;100.00;101016.47;5583235;31;34418;-89
2022/11/30 05:33:54;;;;;;;26.67;12.77;;;;;;;2.10;100.00;101024.31;5583099;31;34660;-88
2022/11/30 05:36:59;;;;;;;24.92;12.75;;;;;;;2.13;100.00;101023.44;5582755;31;34411;-88
2022/11/30 05:40:02;;;;;;;26.15;12.73;;;;;;;2.15;100.00;101024.31;5585235;32;34001;-88
2022/11/30 05:43:05;;;;;;;18.83;11.50;;;;;;;2.20;100.00;101019.91;5585581;31;33560;-88
2022/11/30 05:46:09;;;;;;;21.23;12.43;;;;;;;2.25;100.00;101027.75;5584241;32;35937;-89
2022/11/30 05:49:11;;;;;;;24.90;13.13;;;;;;;2.25;100.00;101017.28;5590133;32;33484;-89
2022/11/30 05:52:14;;;;;;;22.73;11.93;;;;;;;2.27;100.00;101023.41;5598730;31;35310;-88
2022/11/30 05:55:17;;;;;;;21.27;12.10;;;;;;;2.27;100.00;101021.62;5599106;31;35248;-88
2022/11/30 05:58:19;;;;;;;23.45;11.60;;;;;;;2.34;100.00;101032.06;5598606;31;36103;-88
2022/11/30 06:01:24;;;;;;;20.45;11.93;;;;;;;2.37;100.00;101027.69;5583133;32;33674;-88
2022/11/30 06:04:27;;;;;;;21.73;12.25;;;;;;;2.34;100.00;101026.84;5583105;31;34586;-88
2022/11/30 06:07:33;;;;;;;20.33;11.45;;;;;;;2.35;100.00;101024.22;5591769;31;33386;-88
2022/11/30 06:10:36;;;;;;;19.10;10.85;;;;;;;2.39;100.00;101028.56;5589876;31;33788;-88
2022/11/30 06:13:39;;;;;;;18.27;11.65;;;;;;;2.45;100.00;101024.19;5593227;31;34339;-88
2022/11/30 06:16:41;;;;;;;20.58;12.37;;;;;;;2.50;100.00;101033.75;5593974;31;34010;-87
2022/11/30 06:19:44;;;;;;;19.50;11.82;;;;;;;2.50;100.00;101035.47;5595652;31;33875;-89
2022/11/30 06:22:47;;;;;;;21.05;11.65;;;;;;;2.48;100.00;101037.25;5598383;31;33656;-89
2022/11/30 06:25:49;;;;;;;20.90;11.57;;;;;;;2.52;100.00;101039.81;5592575;31;34254;-89
2022/11/30 06:28:52;;;;;;;21.80;11.25;;;;;;;2.53;100.00;101043.31;5625436;26;34842;-89
2022/11/30 06:31:55;;;;;;;20.77;11.35;;;;;;;2.53;100.00;101036.31;5569646;32;34376;-89
2022/11/30 06:34:58;;;;;;;23.23;12.15;;;;;;;2.56;100.00;101045.91;5574539;32;34083;-89
2022/11/30 06:38:00;;;;;;;21.52;11.38;;;;;;;2.69;100.00;101052.84;5556903;32;34489;-89
2022/11/30 06:41:07;;;;;;;20.45;11.30;;;;;;;2.64;100.00;101058.97;5555038;32;32942;-89
2022/11/30 06:44:09;;;;;;;21.00;11.55;;;;;;;2.63;100.00;101060.75;5557100;32;33894;-87
2022/11/30 06:47:12;;;;;;;23.58;11.25;;;;;;;2.66;100.00;101065.94;5563292;32;33914;-87
2022/11/30 06:50:15;;;;;;;20.60;11.30;;;;;;;2.73;100.00;101071.16;5540017;32;33863;-88
2022/11/30 06:53:18;;;;;;;23.52;11.70;;;;;;;2.73;100.00;101063.28;5559780;32;33576;-89
2022/11/30 06:56:20;;;;;;;20.67;11.68;;;;;;;2.82;100.00;101056.25;5559614;32;33626;-88
2022/11/30 06:59:23;;;;;;;20.83;10.98;;;;;;;2.78;100.00;101066.75;5559084;32;34000;-89
2022/11/30 07:02:26;;;;;;;20.75;11.05;;;;;;;2.84;100.00;101061.47;5536556;32;32524;-89
2022/11/30 07:05:36;;;;;;;23.10;12.60;;;;;;;2.97;100.00;101057.03;5560025;32;34296;-91
2022/11/30 07:15:56;;;;;;;22.95;11.95;;;;;;;3.03;100.00;101062.25;5544286;26;20111;-89
2022/11/30 07:18:58;;;;;;;26.37;11.80;;;;;;;3.11;100.00;101059.53;5540438;32;35313;-89
2022/11/30 07:22:01;;;;;;;23.40;11.52;;;;;;;3.12;100.00;101058.66;5535486;32;33724;-90
2022/11/30 07:28:26;;;;;;;20.02;11.38;;;;;;;3.15;100.00;101063.00;5514159;26;35000;-90
2022/11/30 07:31:35;;;;;;;23.27;12.25;;;;;;;3.24;100.00;101060.31;5544861;26;34500;-92
2022/11/30 07:34:48;;;;;;;22.87;12.45;;;;;;;3.30;100.00;101057.66;5522492;32;33970;-91
2022/11/30 07:37:55;;;;;;;26.87;12.85;;;;;;;3.26;100.00;101055.91;5517239;32;34675;-90
2022/11/30 07:40:57;;;;;;;29.40;15.38;;;;;;;3.40;100.00;101054.94;5510330;32;32501;-92
2022/11/30 07:44:03;;;;;;;26.70;15.13;;;;;;;3.36;100.00;101048.84;5502803;32;32532;-91
2022/11/30 07:47:06;;;;;;;29.02;16.52;;;;;;;3.46;100.00;101050.50;5529081;32;33969;-90
2022/11/30 07:50:09;;;;;;;30.50;15.07;;;;;;;3.57;100.00;101058.25;5519596;32;34403;-89
2022/11/30 07:53:11;;;;;;;25.58;13.25;;;;;;;3.55;100.00;101052.19;5507016;32;34034;-88
2022/11/30 07:56:18;;;;;;;29.37;13.35;;;;;;;3.71;100.00;101055.50;5515271;32;34705;-89
2022/11/30 07:59:21;;;;;;;20.77;11.75;;;;;;;3.74;100.00;101060.75;5503454;32;32066;-89
2022/11/30 08:02:23;;;;;;;22.92;12.05;;;;;;;3.83;100.00;101049.25;5523645;32;34158;-89
2022/11/30 08:05:27;;;;;;;19.65;11.88;;;;;;;3.67;100.00;101055.56;5532082;32;34786;-89
2022/11/30 08:08:34;;;;;;;24.55;12.00;;;;;;;3.75;100.00;101067.72;5515964;32;34256;-89
2022/11/30 08:11:37;;;;;;;22.98;11.35;;;;;;;3.72;100.00;101057.25;5503584;32;32440;-89
2022/11/30 08:14:40;;;;;;;21.90;11.57;;;;;;;3.52;100.00;101056.59;5512952;32;34037;-90
2022/11/30 08:18:05;;;;;;;20.33;11.15;;;;;;;3.55;100.00;101069.66;5515424;32;34725;-89
2022/11/30 08:21:11;;;;;;;17.67;11.12;;;;;;;3.61;100.00;101065.22;5512573;32;34092;-89
2022/11/30 08:24:14;;;;;;;19.08;12.13;;;;;;;3.80;100.00;101056.28;5509595;32;33389;-89
2022/11/30 08:35:06;;;;;;;19.42;11.30;;;;;;;3.95;100.00;101052.62;1082955;26;20392;-87
2022/11/30 08:38:10;;;;;;;19.62;11.35;;;;;;;4.27;100.00;101054.88;5532515;32;32342;-87
2022/11/30 08:41:16;;;;;;;21.33;10.90;;;;;;;4.29;100.00;101054.88;5531398;32;33628;-87
2022/11/30 08:44:18;;;;;;;19.60;10.70;;;;;;;4.24;100.00;101048.81;5533626;32;32507;-86
2022/11/30 08:47:21;;;;;;;16.02;10.10;;;;;;;4.20;100.00;101049.72;5529584;32;34124;-87
2022/11/30 08:50:24;;;;;;;16.27;9.57;;;;;;;4.25;100.00;101047.91;5526139;32;33480;-87
2022/11/30 08:53:27;;;;;;;17.62;10.75;;;;;;;4.17;100.00;101042.75;5533939;32;34496;-87
2022/11/30 08:56:30;;;;;;;15.05;9.90;;;;;;;4.14;100.00;101042.78;5528765;32;34475;-87
2022/11/30 08:59:32;;;;;;;16.23;9.95;;;;;;;4.28;100.00;101038.22;5529364;32;34235;-87
2022/11/30 09:02:36;;;;;;;16.67;9.60;;;;;;;4.24;100.00;101038.28;5530608;32;33860;-87
2022/11/30 09:05:38;;;;;;;17.12;9.55;;;;;;;4.42;100.00;101040.69;5527370;32;34062;-91
2022/11/30 09:08:44;;;;;;;16.55;10.02;;;;;;;4.50;100.00;101044.97;5526654;32;34066;-91
2022/11/30 09:11:49;;;;;;;16.77;10.63;;;;;;;4.72;100.00;101038.53;5516177;32;34259;-92
2022/11/30 09:14:51;;;;;;;19.98;10.63;;;;;;;4.57;100.00;101038.72;5529924;32;34639;-87
2022/11/30 09:17:59;;;;;;;17.98;9.27;;;;;;;4.67;100.00;101039.50;5538394;32;33778;-90
2022/11/30 09:24:31;;;;;;;18.00;10.18;;;;;;;4.85;100.00;101039.22;5502200;32;32018;-87
2022/11/30 09:27:33;;;;;;;17.30;10.48;;;;;;;4.81;100.00;101034.88;5510451;32;34008;-87
2022/11/30 09:30:36;;;;;;;17.10;10.52;;;;;;;4.70;100.00;101042.06;5501973;32;33314;-87
2022/11/30 09:33:39;;;;;;;15.93;10.23;;;;;;;4.95;100.00;101041.69;5520228;32;33828;-87
2022/11/30 09:36:42;;;;;;;20.15;10.32;;;;;;;5.17;100.00;101038.72;5519727;32;34204;-87
2022/11/30 09:39:45;;;;;;;18.75;10.68;;;;;;;5.24;100.00;101043.84;5515378;32;33969;-87
2022/11/30 09:43:00;;;;;;;16.67;9.95;;;;;;;5.33;100.00;101036.69;5511669;32;34076;-87
2022/11/30 09:46:05;;;;;;;18.35;10.52;;;;;;;5.52;100.00;101039.84;5518026;32;33930;-87
2022/11/30 09:49:23;;;;;;;20.20;11.48;;;;;;;5.49;100.00;101037.28;5525885;32;32672;-86
2022/11/30 09:52:34;;;;;;;17.50;10.98;;;;;;;5.30;100.00;101037.63;5521633;32;34128;-86
2022/11/30 09:55:40;;;;;;;19.37;10.55;;;;;;;5.22;100.00;101037.75;5507762;32;33970;-87
2022/11/30 09:58:53;;;;;;;20.98;10.77;;;;;;;5.37;100.00;101038.38;5531496;32;34332;-87
2022/11/30 10:02:02;;;;;;;17.52;10.93;;;;;;;5.36;100.00;101027.00;5516455;32;33611;-87
2022/11/30 10:05:16;;;;;;;16.80;9.43;;;;;;;5.36;100.00;101032.25;5513603;32;34042;-89
2022/11/30 10:08:27;;;;;;;16.52;9.68;;;;;;;5.47;100.00;101034.69;5516609;32;34472;-88
2022/11/30 10:11:36;;;;;;;;;;;;;;;5.47;100.00;101028.53;5499329;32;32646;-90
2022/11/30 10:14:54;;;;;;;14.30;8.73;;;;;;;5.50;100.00;101037.28;5512560;32;34231;-89
2022/11/30 10:18:13;;;;;;;16.15;8.90;;;;;;;5.56;100.00;101028.38;5512601;32;33668;-89
2022/11/30 10:21:21;;;;;;;17.30;9.13;;;;;;;5.55;100.00;101031.91;5515927;32;33463;-89
2022/11/30 10:24:46;;;;;;;12.32;8.05;;;;;;;5.64;100.00;101029.09;5517254;32;34018;-89
2022/11/30 10:27:59;;;;;;;17.17;9.43;;;;;;;5.58;100.00;101028.38;5520009;32;32979;-87
2022/11/30 10:31:52;;;;;;;16.00;8.98;;;;;;;5.73;100.00;101030.69;5541068;32;35320;-88
2022/11/30 10:35:02;;;;;;;13.40;7.95;;;;;;;5.80;100.00;101013.88;5505425;32;34257;-88
2022/11/30 10:38:30;;;;;;;17.83;8.27;;;;;;;5.76;100.00;101022.75;5485959;32;33164;-86
2022/11/30 10:41:58;;;;;;;13.60;7.50;;;;;;;5.75;100.00;101009.63;5509780;32;34343;-87
2022/11/30 10:45:10;;;;;;;13.07;6.93;;;;;;;5.86;100.00;101007.66;5530590;32;33793;-87
2022/11/30 10:48:23;;;;;;;12.15;7.30;;;;;;;6.10;100.00;101001.94;5528570;32;34136;-87
2022/11/30 10:51:26;;;;;;;13.27;7.78;;;;;;;5.85;100.00;100995.38;5522840;32;33747;-88
2022/11/30 10:54:30;;;;;;;14.23;8.40;;;;;;;5.91;100.00;101002.28;5517678;32;34226;-86
2022/11/30 10:57:33;;;;;;;10.88;7.10;;;;;;;5.97;100.00;101001.28;5521107;32;34177;-87
2022/11/30 11:00:36;;;;;;;11.88;7.62;;;;;;;6.09;100.00;100993.19;5525840;32;33724;-87
2022/11/30 11:03:38;;;;;;;14.63;7.32;;;;;;;6.20;100.00;101000.84;5517350;32;34592;-86
2022/11/30 11:06:45;;;;;;;13.82;6.90;;;;;;;6.31;100.00;100998.84;5499520;32;32877;-87
2022/11/30 11:09:51;;;;;;;12.63;7.78;;;;;;;6.44;100.00;100983.63;5511571;32;34457;-90
2022/11/30 11:12:54;;;;;;;12.25;7.70;;;;;;;6.43;100.00;100991.53;5513621;32;34847;-88
2022/11/30 11:15:59;;;;;;;15.02;7.65;;;;;;;6.55;100.00;100993.06;5513713;32;33603;-89
2022/11/30 11:19:02;;;;;;;12.80;7.78;;;;;;;6.52;100.00;100988.72;5532317;32;34643;-89
2022/11/30 11:22:23;;;;;;;12.63;7.62;;;;;;;6.50;100.00;100984.38;5524282;32;34278;-88
2022/11/30 11:25:35;;;;;;;15.90;8.18;;;;;;;6.45;100.00;100981.84;5525474;32;34189;-89
2022/11/30 11:28:44;;;;;;;12.43;7.97;;;;;;;6.37;100.00;100983.78;5524181;32;33745;-89
2022/11/30 11:31:47;;;;;;;16.85;8.43;;;;;;;6.39;100.00;100979.34;5525400;32;34317;-88
2022/11/30 11:34:51;;;;;;;15.75;8.73;;;;;;;6.41;100.00;100982.81;5585965;26;34341;-87
2022/11/30 11:37:54;;;;;;;15.57;9.00;;;;;;;6.51;100.00;100978.19;5527268;32;34576;-88
2022/11/30 11:41:03;;;;;;;18.12;8.75;;;;;;;6.44;100.00;100983.63;5534517;32;34695;-88
2022/11/30 11:44:09;;;;;;;15.73;8.63;;;;;;;6.50;100.00;100994.91;5529981;32;35269;-92
2022/11/30 11:47:24;;;;;;;14.05;8.02;;;;;;;6.53;100.00;100985.19;5529646;32;34309;-92
2022/11/30 11:50:32;;;;;;;14.18;8.52;;;;;;;6.41;100.00;100983.69;5533337;32;33693;-87
2022/11/30 11:54:21;;;;;;;16.05;8.10;;;;;;;6.64;100.00;100984.06;5531851;32;33032;-88
2022/11/30 11:57:39;;;;;;;14.68;8.32;;;;;;;6.64;100.00;100989.34;5533078;32;34253;-91
2022/11/30 12:00:43;;;;;;;12.90;7.85;;;;;;;6.65;100.00;100986.69;5524854;32;33955;-89
2022/11/30 12:04:01;;;;;;;12.63;8.07;;;;;;;6.75;100.00;100971.50;5529506;32;32430;-87
2022/11/30 12:07:15;;;;;;;13.18;8.30;;;;;;;6.81;100.00;100981.91;5545749;31;34815;-89
2022/11/30 12:10:26;;;;;;;12.95;8.63;;;;;;;6.81;100.00;100983.66;5532586;32;34820;-89
2022/11/30 12:13:49;;;;;;;16.08;9.40;;;;;;;7.07;100.00;100990.94;5542080;32;33758;-89
2022/11/30 12:17:22;;;;;;;14.48;8.18;;;;;;;6.91;100.00;100992.22;5536836;32;34323;-90
2022/11/30 12:20:30;;;;;;;14.23;8.30;;;;;;;6.97;100.00;100985.03;5534665;32;34372;-89
2022/11/30 12:23:48;;;;;;;14.18;7.87;;;;;;;6.91;100.00;100969.34;5529763;32;34501;-89
2022/11/30 12:27:00;;;;;;;12.43;8.27;;;;;;;6.79;100.00;100973.13;5527088;32;34190;-89
2022/11/30 12:30:16;;;;;;;16.02;8.82;;;;;;;6.68;100.00;100969.91;5534485;32;32211;-90
2022/11/30 12:33:34;;;;;;;13.62;8.32;;;;;;;6.65;100.00;100980.53;5531089;32;35072;-88
2022/11/30 12:36:49;;;;;;;14.77;9.00;;;;;;;6.84;100.00;100973.03;5529765;32;35363;-89
2022/11/30 12:40:20;;;;;;;15.25;9.73;;;;;;;6.91;100.00;100968.47;5532497;32;33926;-90
2022/11/30 12:43:29;;;;;;;14.80;9.07;;;;;;;6.57;100.00;100973.66;5531725;32;33812;-90
2022/11/30 12:50:30;;;;;;;15.40;8.75;;;;;;;6.58;100.00;100966.59;884942;26;20148;-89
2022/11/30 13:01:30;;;;;;;19.37;10.05;;;;;;;6.83;100.00;100964.25;835849;30;20376;-88
2022/11/30 13:04:47;;;;;;;15.82;9.00;;;;;;;6.87;100.00;100963.28;5490309;32;30558;-87
2022/11/30 13:08:27;;;;;;;13.73;8.60;;;;;;;6.68;100.00;100962.84;5498460;32;32432;-88
2022/11/30 13:11:37;;;;;;;15.23;8.70;;;;;;;6.66;100.00;100962.03;5518427;32;34477;-87
2022/11/30 13:14:40;;;;;;;13.95;7.97;;;;;;;6.65;100.00;100960.31;5522430;32;33726;-87
2022/11/30 13:17:44;;;;;;;14.27;8.57;;;;;;;6.69;100.00;100956.69;5517924;32;35284;-87
2022/11/30 13:20:50;;;;;;;13.10;8.50;;;;;;;6.60;100.00;100951.63;5517519;32;34077;-87
2022/11/30 13:24:05;;;;;;;14.93;8.32;;;;;;;6.68;100.00;100956.72;5502452;32;34193;-87
2022/11/30 13:27:34;;;;;;;15.63;8.68;;;;;;;6.70;100.00;100958.41;5500596;32;33743;-87
2022/11/30 13:30:58;;;;;;;15.77;8.80;;;;;;;6.66;100.00;100954.12;5513405;32;34654;-87
2022/11/30 13:34:02;;;;;;;13.18;7.90;;;;;;;6.73;100.00;100962.75;5515855;32;33765;-86
2022/11/30 13:37:06;;;;;;;12.50;8.15;;;;;;;6.67;100.00;100963.75;5503424;32;34267;-86
2022/11/30 13:40:21;;;;;;;11.50;7.60;;;;;;;6.68;100.00;100962.84;5512136;32;35121;-86
2022/11/30 13:43:27;;;;;;;14.13;8.18;;;;;;;6.67;100.00;100954.97;5509189;32;33038;-86
2022/11/30 13:46:30;;;;;;;17.15;7.95;;;;;;;6.66;100.00;100954.12;5506083;32;32426;-87
2022/11/30 13:49:35;;;;;;;12.77;7.70;;;;;;;6.65;100.00;100954.16;5500054;32;32642;-86
2022/11/30 13:52:56;;;;;;;8.60;5.35;;;;;;;6.70;100.00;100957.56;5541924;32;35415;-91
2022/11/30 13:56:19;;;;;;;6.20;4.30;;;;;;;6.76;100.00;100952.13;5513189;32;34127;-88
2022/11/30 13:59:22;;;;;;;10.48;4.50;;;;;;;6.96;100.00;100959.56;5491660;32;33816;-87
2022/11/30 14:02:43;;;;;;;6.03;4.47;;;;;;;6.92;100.00;100962.28;5510828;32;34116;-88
2022/11/30 14:05:49;;;;;;;5.85;4.28;;;;;;;6.78;100.00;100967.91;5509828;32;34365;-87
2022/11/30 14:08:51;;;;;;;8.00;4.12;;;;;;;6.78;100.00;100957.38;5509391;32;35110;-87
2022/11/30 14:11:54;;;;;;;6.55;4.07;;;;;;;6.65;100.00;100959.44;5497253;32;33792;-87
2022/11/30 14:14:58;;;;;;;7.03;4.30;;;;;;;6.61;100.00;100959.50;5511023;32;33811;-87
2022/11/30 14:18:13;;;;;;;6.47;4.10;;;;;;;6.62;100.00;100960.38;5496279;32;33580;-87
2022/11/30 14:21:20;;;;;;;8.25;4.87;;;;;;;6.50;100.00;100958.91;5509381;32;33937;-86
2022/11/30 14:24:24;;;;;;;8.82;4.18;;;;;;;6.47;100.00;100967.75;5502287;32;34514;-86
2022/11/30 14:27:28;;;;;;;6.65;4.07;;;;;;;6.33;100.00;100968.06;5497488;32;32527;-86
2022/11/30 14:30:33;;;;;;;7.82;4.50;;;;;;;6.40;100.00;100966.16;5512084;32;34036;-87
2022/11/30 14:33:46;;;;;;;6.43;4.25;;;;;;;6.58;100.00;100967.50;5509119;32;34828;-86
2022/11/30 14:36:58;;;;;;;8.23;4.70;;;;;;;6.44;100.00;100961.69;5491865;32;33835;-87
2022/11/30 14:40:03;;;;;;;6.78;4.68;;;;;;;6.36;100.00;100958.34;5491887;32;34363;-88
2022/11/30 14:43:16;;;;;;;9.18;4.78;;;;;;;6.31;100.00;100958.44;5508255;32;34502;-86
2022/11/30 14:46:18;;;;;;;8.70;4.45;;;;;;;6.27;100.00;100957.66;5513537;32;34177;-85
2022/11/30 14:49:23;;;;;;;6.85;4.60;;;;;;;6.14;100.00;100964.09;5512264;32;33451;-88
2022/11/30 14:52:41;;;;;;;6.90;4.60;;;;;;;6.13;100.00;100955.31;5505685;32;34265;-89
2022/11/30 14:55:52;;;;;;;10.30;5.00;;;;;;;6.11;100.00;100958.87;5505312;32;34273;-86
2022/11/30 14:59:04;;;;;;;7.47;4.85;;;;;;;6.10;100.00;100957.16;5512825;32;35314;-86
2022/11/30 15:02:18;;;;;;;7.18;4.35;;;;;;;6.07;81.25;100965.97;5498864;32;32458;-88
2022/11/30 15:05:26;;;;;;;7.75;5.10;;;;;;;6.02;80.63;100967.81;5497795;32;33228;-86
2022/11/30 15:08:35;;;;;;;7.87;4.72;;;;;;;6.02;79.51;100963.47;5478754;32;32814;-86
2022/11/30 15:11:44;;;;;;;6.22;4.47;;;;;;;6.04;79.73;100961.66;5493336;32;33809;-86
2022/11/30 15:15:03;;;;;;;9.38;5.05;;;;;;;6.05;78.89;100958.09;5494413;32;33726;-87
2022/11/30 15:18:15;;;;;;;7.53;4.72;;;;;;;5.92;79.76;100954.84;5492945;32;34457;-86
2022/11/30 15:21:26;;;;;;;7.55;4.47;;;;;;;5.89;79.08;100954.91;5494490;32;34421;-86
2022/11/30 15:24:29;;;;;;;6.20;4.75;;;;;;;5.85;80.61;100948.00;5494372;32;34400;-86
2022/11/30 15:27:32;;;;;;;8.88;5.30;;;;;;;5.86;80.96;100954.97;5499938;32;34279;-85
2022/11/30 15:30:39;;;;;;;11.20;6.35;;;;;;;5.87;80.55;100948.81;5493370;32;33847;-86
2022/11/30 15:33:44;;;;;;;16.98;8.45;;;;;;;5.75;84.64;100955.22;5507376;32;34740;-86
2022/11/30 15:36:47;;;;;;;12.88;8.75;;;;;;;5.65;90.40;100949.22;5514937;32;34189;-85
2022/11/30 15:39:53;;;;;;;16.20;9.43;;;;;;;5.55;97.58;100947.72;5520125;32;33783;-85
2022/11/30 15:42:56;;;;;;;18.83;9.02;;;;;;;5.50;98.48;100950.44;5514866;32;33928;-84
2022/11/30 15:45:59;;;;;;;16.73;9.98;;;;;;;5.41;98.00;100947.97;5515773;32;34066;-83
2022/11/30 15:49:25;;;;;;;16.33;9.63;;;;;;;5.37;97.62;100951.53;5514251;32;33842;-85
2022/11/30 15:52:29;;;;;;;18.42;8.73;;;;;;;5.32;98.41;100953.41;5502944;32;32215;-84
2022/11/30 15:55:44;;;;;;;15.50;9.02;;;;;;;5.26;97.92;100955.25;5515175;32;34003;-84
2022/11/30 15:59:03;;;;;;;15.30;9.38;;;;;;;5.25;98.59;100947.38;5515834;32;34238;-84
2022/11/30 16:02:23;;;;;;;14.77;8.82;;;;;;;5.23;98.59;100952.66;5524676;32;35303;-84
2022/11/30 16:05:26;;;;;;;14.73;9.43;;;;;;;5.23;98.83;100947.41;5514462;32;34856;-84
2022/11/30 16:08:30;;;;;;;15.60;9.63;;;;;;;5.21;98.91;100946.56;5508603;32;34492;-83
2022/11/30 16:11:33;;;;;;;16.77;9.73;;;;;;;5.23;98.97;100955.28;5515025;32;34415;-84
2022/11/30 16:14:36;;;;;;;18.55;10.38;;;;;;;5.14;100.00;100942.31;5514721;32;33786;-84
2022/11/30 16:17:39;;;;;;;18.33;10.07;;;;;;;5.05;100.00;100940.72;5517929;32;34102;-83
2022/11/30 16:20:42;;;;;;;15.05;9.65;;;;;;;5.06;100.00;100950.34;5510056;32;33212;-83
2022/11/30 16:23:46;;;;;;;15.20;10.05;;;;;;;5.07;100.00;100941.56;5519446;32;34961;-83
2022/11/30 16:26:49;;;;;;;16.25;10.23;;;;;;;5.11;100.00;100948.50;5516888;32;34219;-83
2022/11/30 16:29:53;;;;;;;17.20;9.95;;;;;;;5.12;100.00;100952.88;5515339;32;34155;-83
2022/11/30 16:32:58;;;;;;;17.67;10.30;;;;;;;5.13;99.29;100948.47;5515154;32;34478;-83
2022/11/30 16:36:08;;;;;;;16.58;10.05;;;;;;;5.11;98.48;100953.78;5513978;32;34566;-83
2022/11/30 16:39:11;;;;;;;16.48;10.55;;;;;;;5.11;99.37;100950.25;5499891;32;33319;-83
2022/11/30 16:42:14;;;;;;;16.20;10.00;;;;;;;5.12;99.75;100949.34;5514913;32;33979;-83
2022/11/30 16:45:20;;;;;;;17.87;11.18;;;;;;;5.06;99.55;100944.22;5514941;32;34059;-83
